createdAt,value
2022-09-22T00:01:21.442Z,100.00
2022-09-22T00:06:27.104Z,100.00
2022-09-22T00:11:28.906Z,100.00
2022-09-22T00:16:32.371Z,100.00
2022-09-22T00:21:30.931Z,100.00
2022-09-22T00:26:27.384Z,100.00
2022-09-22T00:31:25.864Z,100.00
2022-09-22T00:36:25.670Z,100.00
2022-09-22T00:41:25.505Z,100.00
2022-09-22T00:46:26.096Z,100.00
2022-09-22T00:51:26.347Z,100.00
2022-09-22T00:56:28.571Z,100.00
2022-09-22T01:01:24.973Z,100.00
2022-09-22T01:06:26.703Z,100.00
2022-09-22T01:11:25.191Z,100.00
2022-09-22T01:16:30.715Z,100.00
2022-09-22T01:21:46.959Z,100.00
2022-09-22T01:27:04.916Z,100.00
2022-09-22T01:32:03.987Z,100.00
2022-09-22T01:37:27.954Z,100.00
2022-09-22T01:42:34.309Z,100.00
2022-09-22T01:47:40.545Z,100.00
2022-09-22T01:52:41.093Z,100.00
2022-09-22T01:57:56.478Z,100.00
2022-09-22T02:03:00.677Z,100.00
2022-09-22T02:08:02.402Z,100.00
2022-09-22T02:13:00.498Z,100.00
2022-09-22T02:18:01.576Z,100.00
2022-09-22T02:22:57.940Z,100.00
2022-09-22T02:27:56.642Z,100.00
2022-09-22T02:32:55.396Z,100.00
2022-09-22T02:38:02.271Z,100.00
2022-09-22T02:43:47.608Z,100.00
2022-09-22T02:48:48.271Z,100.00
2022-09-22T02:53:44.813Z,100.00
2022-09-22T02:58:41.105Z,100.00
2022-09-22T03:03:37.545Z,100.00
2022-09-22T03:08:33.865Z,100.00
2022-09-22T03:13:30.226Z,100.00
2022-09-22T03:18:26.540Z,100.00
2022-09-22T03:23:22.912Z,100.00
2022-09-22T03:28:19.334Z,100.00
2022-09-22T03:33:15.646Z,100.00
2022-09-22T03:38:12.201Z,100.00
2022-09-22T03:43:11.909Z,100.00
2022-09-22T03:48:10.848Z,100.00
2022-09-22T03:53:07.144Z,100.00
2022-09-22T03:58:04.278Z,100.00
2022-09-22T04:03:00.582Z,100.00
2022-09-22T04:07:56.957Z,100.00
2022-09-22T04:12:53.446Z,100.00
2022-09-22T04:17:50.142Z,100.00
2022-09-22T04:22:46.554Z,100.00
2022-09-22T04:27:42.997Z,100.00
2022-09-22T04:32:39.440Z,100.00
2022-09-22T04:37:35.882Z,100.00
2022-09-22T04:42:32.432Z,100.00
2022-09-22T04:47:30.405Z,100.00
2022-09-22T04:52:26.980Z,100.00
2022-09-22T04:57:23.385Z,100.00
2022-09-22T05:02:19.705Z,100.00
2022-09-22T05:07:16.008Z,100.00
2022-09-22T05:12:12.358Z,100.00
2022-09-22T05:17:08.696Z,100.00
2022-09-22T05:22:05.042Z,100.00
2022-09-22T05:27:01.426Z,100.00
2022-09-22T05:31:58.235Z,100.00
2022-09-22T05:36:54.590Z,100.00
2022-09-22T05:41:51.227Z,100.00
2022-09-22T05:46:48.069Z,100.00
2022-09-22T05:51:44.441Z,100.00
2022-09-22T05:56:40.827Z,100.00
2022-09-22T06:01:39.207Z,100.00
2022-09-22T06:06:35.559Z,100.00
2022-09-22T06:11:31.905Z,100.00
2022-09-22T06:16:30.445Z,100.00
2022-09-22T06:21:26.958Z,100.00
2022-09-22T06:26:23.288Z,100.00
2022-09-22T06:31:19.675Z,100.00
2022-09-22T06:36:27.574Z,100.00
2022-09-22T06:41:32.207Z,100.00
2022-09-22T06:46:31.425Z,100.00
2022-09-22T06:51:30.324Z,100.00
2022-09-22T06:56:27.973Z,100.00
2022-09-22T07:01:24.691Z,100.00
2022-09-22T07:06:22.382Z,100.00
2022-09-22T07:11:23.141Z,100.00
2022-09-22T07:16:22.105Z,100.00
2022-09-22T07:21:21.676Z,100.00
2022-09-22T07:26:20.589Z,100.00
2022-09-22T07:31:17.318Z,100.00
2022-09-22T07:36:19.924Z,100.00
2022-09-22T07:41:21.812Z,100.00
2022-09-22T07:46:18.951Z,100.00
2022-09-22T07:51:22.586Z,100.00
2022-09-22T07:56:21.251Z,100.00
2022-09-22T08:01:19.786Z,100.00
2022-09-22T08:06:18.455Z,100.00
2022-09-22T08:11:17.604Z,100.00
2022-09-22T08:16:14.417Z,100.00
2022-09-22T08:21:10.771Z,100.00
2022-09-22T08:26:08.454Z,100.00
2022-09-22T08:31:12.137Z,100.00
2022-09-22T08:36:09.652Z,100.00
2022-09-22T08:41:17.469Z,100.00
2022-09-22T08:46:15.415Z,100.00
2022-09-22T08:51:37.489Z,100.00
2022-09-22T08:56:40.390Z,100.00
2022-09-22T09:01:46.345Z,100.00
2022-09-22T09:07:08.063Z,100.00
2022-09-22T09:12:30.259Z,100.00
2022-09-22T09:17:32.375Z,100.00
2022-09-22T09:22:43.679Z,100.00
2022-09-22T09:27:47.051Z,100.00
2022-09-22T09:32:52.481Z,100.00
2022-09-22T09:37:49.316Z,100.00
2022-09-22T09:43:04.126Z,100.00
2022-09-22T09:48:15.672Z,100.00
2022-09-22T09:53:42.181Z,97.61
2022-09-22T09:59:19.836Z,91.59
2022-09-22T10:04:35.249Z,90.11
2022-09-22T10:09:31.839Z,84.43
2022-09-22T10:14:35.174Z,87.30
2022-09-22T10:19:34.548Z,95.78
2022-09-22T10:24:33.054Z,91.21
2022-09-22T10:29:29.458Z,89.41
2022-09-22T10:34:39.296Z,90.68
2022-09-22T10:39:45.931Z,83.15
2022-09-22T10:44:48.250Z,80.27
2022-09-22T10:50:03.005Z,76.91
2022-09-22T10:55:27.901Z,75.35
2022-09-22T11:00:26.536Z,75.00
2022-09-22T11:06:02.200Z,73.07
2022-09-22T11:11:38.884Z,75.88
2022-09-22T11:16:39.248Z,70.04
2022-09-22T11:22:00.656Z,70.45
2022-09-22T11:27:01.195Z,66.79
2022-09-22T11:32:05.412Z,62.33
2022-09-22T11:37:25.662Z,62.32
2022-09-22T11:42:48.600Z,65.20
2022-09-22T11:48:07.637Z,72.64
2022-09-22T11:53:23.120Z,65.59
2022-09-22T11:58:24.020Z,65.28
2022-09-22T12:03:27.216Z,69.21
2022-09-22T12:08:28.797Z,67.26
2022-09-22T12:13:28.406Z,67.40
2022-09-22T12:18:33.697Z,63.42
2022-09-22T12:23:39.814Z,60.09
2022-09-22T12:28:44.034Z,60.08
2022-09-22T12:33:56.322Z,58.17
2022-09-22T12:38:52.862Z,60.26
2022-09-22T12:43:49.280Z,60.49
2022-09-22T12:48:46.583Z,59.80
2022-09-22T12:53:43.996Z,57.46
2022-09-22T12:58:42.002Z,56.67
2022-09-22T13:03:38.311Z,59.99
2022-09-22T13:08:35.327Z,62.27
2022-09-22T13:13:31.823Z,62.41
2022-09-22T13:18:40.575Z,58.83
2022-09-22T13:23:36.894Z,58.27
2022-09-22T13:28:33.263Z,56.92
2022-09-22T13:33:34.540Z,53.27
2022-09-22T13:38:35.482Z,52.57
2022-09-22T13:43:37.294Z,52.30
2022-09-22T13:48:36.883Z,50.74
2022-09-22T13:53:33.301Z,52.74
2022-09-22T13:58:38.732Z,55.03
2022-09-22T14:03:39.080Z,56.58
2022-09-22T14:08:35.957Z,62.02
2022-09-22T14:13:36.438Z,61.80
2022-09-22T14:18:33.858Z,67.57
2022-09-22T14:23:32.986Z,70.77
2022-09-22T14:28:35.102Z,73.04
2022-09-22T14:33:33.501Z,68.10
2022-09-22T14:38:35.433Z,61.69
2022-09-22T14:43:37.853Z,57.38
2022-09-22T14:48:36.423Z,56.43
2022-09-22T14:53:43.892Z,58.46
2022-09-22T14:58:42.417Z,57.67
2022-09-22T15:03:41.648Z,54.29
2022-09-22T15:08:39.050Z,53.05
2022-09-22T15:13:35.330Z,55.78
2022-09-22T15:18:31.758Z,59.46
2022-09-22T15:23:35.551Z,59.63
2022-09-22T15:28:43.495Z,59.94
2022-09-22T15:33:40.262Z,61.13
2022-09-22T15:38:38.084Z,61.77
2022-09-22T15:43:34.537Z,60.44
2022-09-22T15:48:36.958Z,61.95
2022-09-22T15:53:34.479Z,63.49
2022-09-22T15:58:39.091Z,70.55
2022-09-22T16:03:41.068Z,89.60
2022-09-22T16:08:42.217Z,90.15
2022-09-22T16:13:40.210Z,100.00
2022-09-22T16:18:39.225Z,91.73
2022-09-22T16:23:35.525Z,86.65
2022-09-22T16:28:31.913Z,80.27
2022-09-22T16:33:28.217Z,56.51
2022-09-22T16:38:24.837Z,47.63
2022-09-22T16:43:21.174Z,46.41
2022-09-22T16:48:18.077Z,49.77
2022-09-22T16:53:15.046Z,53.42
2022-09-22T16:58:13.087Z,58.80
2022-09-22T17:03:09.421Z,71.02
2022-09-22T17:08:06.948Z,94.81
2022-09-22T17:13:04.743Z,100.00
2022-09-22T17:18:02.569Z,100.00
2022-09-22T17:22:59.298Z,100.00
2022-09-22T17:27:56.339Z,100.00
2022-09-22T17:32:53.488Z,100.00
2022-09-22T17:37:52.156Z,100.00
2022-09-22T17:42:48.757Z,100.00
2022-09-22T17:48:03.531Z,100.00
2022-09-22T17:53:18.369Z,100.00
2022-09-22T17:58:14.678Z,100.00
2022-09-22T18:03:11.059Z,100.00
2022-09-22T18:08:07.773Z,100.00
2022-09-22T18:13:04.367Z,100.00
2022-09-22T18:18:00.740Z,100.00
2022-09-22T18:23:00.179Z,100.00
2022-09-22T18:27:57.765Z,100.00
2022-09-22T18:32:54.927Z,100.00
2022-09-22T18:37:51.250Z,100.00
2022-09-22T18:42:47.599Z,100.00
2022-09-22T18:47:44.159Z,100.00
2022-09-22T18:52:43.249Z,100.00
2022-09-22T18:57:39.656Z,100.00
2022-09-22T19:02:36.131Z,100.00
2022-09-22T19:07:41.892Z,100.00
2022-09-22T19:12:42.387Z,100.00
2022-09-22T19:17:40.696Z,100.00
2022-09-22T19:22:38.370Z,100.00
2022-09-22T19:27:35.064Z,100.00
2022-09-22T19:32:31.449Z,100.00
2022-09-22T19:37:29.225Z,100.00
2022-09-22T19:42:25.688Z,100.00
2022-09-22T19:47:22.299Z,100.00
2022-09-22T19:52:18.695Z,100.00
2022-09-22T19:57:15.003Z,100.00
2022-09-22T20:02:13.500Z,100.00
2022-09-22T20:07:10.919Z,100.00
2022-09-22T20:12:07.448Z,100.00
2022-09-22T20:17:06.309Z,100.00
2022-09-22T20:22:27.603Z,100.00
2022-09-22T20:27:29.573Z,100.00
2022-09-22T20:32:28.293Z,100.00
2022-09-22T20:37:24.962Z,100.00
2022-09-22T20:42:21.617Z,100.00
2022-09-22T20:47:21.142Z,100.00
2022-09-22T20:52:20.009Z,100.00
2022-09-22T20:57:17.053Z,100.00
2022-09-22T21:02:14.835Z,100.00
2022-09-22T21:07:11.626Z,100.00
2022-09-22T21:12:08.629Z,100.00
2022-09-22T21:17:07.579Z,100.00
2022-09-22T21:22:04.775Z,100.00
2022-09-22T21:27:01.126Z,100.00
2022-09-22T21:31:58.016Z,100.00
2022-09-22T21:36:55.499Z,100.00
2022-09-22T21:41:51.992Z,100.00
2022-09-22T21:46:48.478Z,100.00
2022-09-22T21:51:44.835Z,100.00
2022-09-22T21:56:42.025Z,100.00
2022-09-22T22:01:40.364Z,100.00
2022-09-22T22:06:40.481Z,100.00
2022-09-22T22:11:44.295Z,100.00
2022-09-22T22:16:45.906Z,100.00
2022-09-22T22:21:43.003Z,100.00
2022-09-22T22:26:39.577Z,100.00
2022-09-22T22:31:36.293Z,100.00
2022-09-22T22:36:33.070Z,100.00
2022-09-22T22:41:30.339Z,100.00
2022-09-22T22:46:26.834Z,100.00
2022-09-22T22:51:23.911Z,100.00
2022-09-22T22:56:29.660Z,100.00
2022-09-22T23:01:31.069Z,100.00
2022-09-22T23:06:29.862Z,100.00
2022-09-22T23:11:37.033Z,100.00
2022-09-22T23:16:36.758Z,100.00
2022-09-22T23:21:33.497Z,100.00
2022-09-22T23:26:30.197Z,100.00
2022-09-22T23:31:27.711Z,100.00
2022-09-22T23:36:26.735Z,100.00
2022-09-22T23:41:23.695Z,100.00
2022-09-22T23:46:21.192Z,100.00
2022-09-22T23:51:19.507Z,100.00
2022-09-22T23:56:15.848Z,100.00
